EKSB/SGD METAR and TAF weather

Enter ICAO airport designator
Station Type Date Time Source
EKSB METAR 2019/12/13 01:20 UTC NOAA

EKSB 130120Z AUTO 15016G26KT 9999NDV NCD 04/01 Q0987


Station Type Date Time Source
EKSB Decoded METAR 2019/12/13 01:20 UTC NOAA

Soenderborg Lufthavn, Denmark (EKSB) 54-58N 009-47E 14M
Dec 12, 2019 - 08:20 PM EST / 2019.12.13 0120 UTC
Wind: from the SSE (150 degrees) at 18 MPH (16 KT) gusting to 30 MPH (26 KT):0
Temperature: 39 F (4 C)
Dew Point: 33 F (1 C)
Relative Humidity: 80%
Pressure (altimeter): 29.15 in. Hg (0987 hPa)
ob: EKSB 130120Z AUTO 15016G26KT 9999NDV NCD 04/01 Q0987
cycle: 1

Station Type Date Time Source
EKSB TAF 2016/01/27 09:03 UTC NOAA

TAF TAF EKSB 270856Z 2709/2721 23022KT 5000 -RA BR BKN008
TEMPO 2709/2721 24025G40KT 2000 RADZ BKN004

Example: see airport list